sensor_id;sensor_type;location;lat;lon;timestamp;P1;durP1;ratioP1;P2;durP2;ratioP2
35225;SDS011;21813;49.686;21.766;2023-06-26T00:01:34;12.90;;;8.68;;
35225;SDS011;21813;49.686;21.766;2023-06-26T00:04:15;12.10;;;8.43;;
35225;SDS011;21813;49.686;21.766;2023-06-26T00:17:52;13.98;;;9.23;;
35225;SDS011;21813;49.686;21.766;2023-06-26T00:20:27;14.88;;;9.07;;
35225;SDS011;21813;49.686;21.766;2023-06-26T00:23:02;11.18;;;8.93;;
35225;SDS011;21813;49.686;21.766;2023-06-26T00:26:01;11.90;;;8.63;;
35225;SDS011;21813;49.686;21.766;2023-06-26T00:32:07;17.08;;;9.45;;
35225;SDS011;21813;49.686;21.766;2023-06-26T00:34:34;13.15;;;9.25;;
35225;SDS011;21813;49.686;21.766;2023-06-26T00:37:00;12.93;;;9.23;;
35225;SDS011;21813;49.686;21.766;2023-06-26T00:39:27;12.93;;;8.93;;
35225;SDS011;21813;49.686;21.766;2023-06-26T00:41:59;14.13;;;9.45;;
35225;SDS011;21813;49.686;21.766;2023-06-26T00:44:26;12.00;;;8.88;;
35225;SDS011;21813;49.686;21.766;2023-06-26T00:46:55;11.75;;;9.13;;
35225;SDS011;21813;49.686;21.766;2023-06-26T00:49:37;12.18;;;9.50;;
35225;SDS011;21813;49.686;21.766;2023-06-26T00:52:30;17.23;;;10.57;;
35225;SDS011;21813;49.686;21.766;2023-06-26T00:59:10;13.23;;;10.00;;
35225;SDS011;21813;49.686;21.766;2023-06-26T01:01:36;17.98;;;9.63;;
35225;SDS011;21813;49.686;21.766;2023-06-26T01:04:22;13.07;;;10.07;;
35225;SDS011;21813;49.686;21.766;2023-06-26T01:07:22;13.38;;;10.02;;
35225;SDS011;21813;49.686;21.766;2023-06-26T01:15:34;12.98;;;9.38;;
35225;SDS011;21813;49.686;21.766;2023-06-26T01:21:30;13.73;;;9.48;;
35225;SDS011;21813;49.686;21.766;2023-06-26T01:24:09;13.93;;;9.70;;
35225;SDS011;21813;49.686;21.766;2023-06-26T01:29:44;13.60;;;9.15;;
35225;SDS011;21813;49.686;21.766;2023-06-26T01:32:23;12.82;;;9.20;;
35225;SDS011;21813;49.686;21.766;2023-06-26T01:38:31;15.45;;;9.02;;
35225;SDS011;21813;49.686;21.766;2023-06-26T01:40:58;17.17;;;9.27;;
35225;SDS011;21813;49.686;21.766;2023-06-26T01:43:25;13.25;;;9.80;;
35225;SDS011;21813;49.686;21.766;2023-06-26T01:45:59;15.60;;;9.77;;
35225;SDS011;21813;49.686;21.766;2023-06-26T01:51:17;15.82;;;10.13;;
35225;SDS011;21813;49.686;21.766;2023-06-26T01:53:50;11.77;;;9.32;;
35225;SDS011;21813;49.686;21.766;2023-06-26T01:56:24;12.55;;;9.10;;
35225;SDS011;21813;49.686;21.766;2023-06-26T01:58:56;12.93;;;9.60;;
35225;SDS011;21813;49.686;21.766;2023-06-26T02:01:31;19.92;;;10.35;;
35225;SDS011;21813;49.686;21.766;2023-06-26T02:03:59;14.95;;;9.63;;
35225;SDS011;21813;49.686;21.766;2023-06-26T02:06:26;14.45;;;9.23;;
35225;SDS011;21813;49.686;21.766;2023-06-26T02:08:58;14.57;;;9.30;;
35225;SDS011;21813;49.686;21.766;2023-06-26T02:11:24;18.73;;;9.68;;
35225;SDS011;21813;49.686;21.766;2023-06-26T02:13:50;13.70;;;9.93;;
35225;SDS011;21813;49.686;21.766;2023-06-26T02:16:16;15.73;;;9.93;;
35225;SDS011;21813;49.686;21.766;2023-06-26T02:18:42;16.25;;;10.35;;
35225;SDS011;21813;49.686;21.766;2023-06-26T02:21:20;20.80;;;11.35;;
35225;SDS011;21813;49.686;21.766;2023-06-26T02:23:50;13.82;;;10.35;;
35225;SDS011;21813;49.686;21.766;2023-06-26T02:26:17;15.40;;;12.45;;
35225;SDS011;21813;49.686;21.766;2023-06-26T02:28:45;20.70;;;14.90;;
35225;SDS011;21813;49.686;21.766;2023-06-26T02:31:12;19.27;;;14.10;;
35225;SDS011;21813;49.686;21.766;2023-06-26T02:33:38;19.77;;;12.57;;
35225;SDS011;21813;49.686;21.766;2023-06-26T02:36:05;17.45;;;11.73;;
35225;SDS011;21813;49.686;21.766;2023-06-26T02:38:31;17.80;;;12.50;;
35225;SDS011;21813;49.686;21.766;2023-06-26T02:40:57;16.75;;;11.93;;
35225;SDS011;21813;49.686;21.766;2023-06-26T02:43:23;14.60;;;11.75;;
35225;SDS011;21813;49.686;21.766;2023-06-26T02:45:50;17.20;;;11.73;;
35225;SDS011;21813;49.686;21.766;2023-06-26T02:48:22;20.02;;;11.30;;
35225;SDS011;21813;49.686;21.766;2023-06-26T02:50:52;18.15;;;11.35;;
35225;SDS011;21813;49.686;21.766;2023-06-26T02:53:20;19.58;;;13.35;;
35225;SDS011;21813;49.686;21.766;2023-06-26T02:58:37;18.58;;;12.13;;
35225;SDS011;21813;49.686;21.766;2023-06-26T03:11:08;21.20;;;12.02;;
35225;SDS011;21813;49.686;21.766;2023-06-26T03:13:35;15.55;;;11.48;;
35225;SDS011;21813;49.686;21.766;2023-06-26T03:19:33;21.38;;;12.27;;
35225;SDS011;21813;49.686;21.766;2023-06-26T03:21:59;18.35;;;12.60;;
35225;SDS011;21813;49.686;21.766;2023-06-26T03:24:26;19.30;;;12.70;;
35225;SDS011;21813;49.686;21.766;2023-06-26T03:26:52;20.45;;;13.57;;
35225;SDS011;21813;49.686;21.766;2023-06-26T03:29:19;20.83;;;13.80;;
35225;SDS011;21813;49.686;21.766;2023-06-26T03:31:45;22.40;;;14.90;;
35225;SDS011;21813;49.686;21.766;2023-06-26T03:34:12;18.05;;;13.85;;
35225;SDS011;21813;49.686;21.766;2023-06-26T03:36:38;22.50;;;14.25;;
35225;SDS011;21813;49.686;21.766;2023-06-26T03:39:04;18.30;;;13.23;;
35225;SDS011;21813;49.686;21.766;2023-06-26T03:41:30;21.77;;;14.77;;
35225;SDS011;21813;49.686;21.766;2023-06-26T03:43:58;21.60;;;13.15;;
35225;SDS011;21813;49.686;21.766;2023-06-26T03:46:28;21.80;;;12.00;;
35225;SDS011;21813;49.686;21.766;2023-06-26T03:49:01;19.85;;;12.55;;
35225;SDS011;21813;49.686;21.766;2023-06-26T03:54:05;18.90;;;12.15;;
35225;SDS011;21813;49.686;21.766;2023-06-26T03:56:48;19.45;;;11.77;;
35225;SDS011;21813;49.686;21.766;2023-06-26T03:59:18;23.85;;;15.48;;
35225;SDS011;21813;49.686;21.766;2023-06-26T04:01:44;23.77;;;16.13;;
35225;SDS011;21813;49.686;21.766;2023-06-26T04:04:11;23.65;;;17.17;;
35225;SDS011;21813;49.686;21.766;2023-06-26T04:10:37;16.23;;;12.48;;
35225;SDS011;21813;49.686;21.766;2023-06-26T04:13:08;19.40;;;12.35;;
35225;SDS011;21813;49.686;21.766;2023-06-26T04:15:43;19.98;;;12.55;;
35225;SDS011;21813;49.686;21.766;2023-06-26T04:18:11;19.83;;;12.10;;
35225;SDS011;21813;49.686;21.766;2023-06-26T04:20:41;19.35;;;11.95;;
35225;SDS011;21813;49.686;21.766;2023-06-26T04:23:31;16.42;;;11.25;;
35225;SDS011;21813;49.686;21.766;2023-06-26T04:25:57;22.13;;;12.75;;
35225;SDS011;21813;49.686;21.766;2023-06-26T04:28:32;16.67;;;13.55;;
35225;SDS011;21813;49.686;21.766;2023-06-26T04:30:58;18.65;;;13.20;;
35225;SDS011;21813;49.686;21.766;2023-06-26T04:33:26;21.02;;;14.18;;
35225;SDS011;21813;49.686;21.766;2023-06-26T04:35:55;22.05;;;14.68;;
35225;SDS011;21813;49.686;21.766;2023-06-26T04:38:21;22.15;;;13.95;;
35225;SDS011;21813;49.686;21.766;2023-06-26T04:41:16;23.17;;;13.77;;
35225;SDS011;21813;49.686;21.766;2023-06-26T04:44:21;17.35;;;12.95;;
35225;SDS011;21813;49.686;21.766;2023-06-26T04:47:36;18.98;;;11.82;;
35225;SDS011;21813;49.686;21.766;2023-06-26T04:50:20;19.05;;;12.05;;
35225;SDS011;21813;49.686;21.766;2023-06-26T04:52:49;20.05;;;11.80;;
35225;SDS011;21813;49.686;21.766;2023-06-26T04:55:29;16.85;;;12.32;;
35225;SDS011;21813;49.686;21.766;2023-06-26T04:57:58;14.73;;;11.85;;
35225;SDS011;21813;49.686;21.766;2023-06-26T05:00:26;18.35;;;11.93;;
35225;SDS011;21813;49.686;21.766;2023-06-26T05:03:05;19.23;;;12.93;;
35225;SDS011;21813;49.686;21.766;2023-06-26T05:05:33;16.25;;;10.85;;
35225;SDS011;21813;49.686;21.766;2023-06-26T05:07:59;12.85;;;9.77;;
35225;SDS011;21813;49.686;21.766;2023-06-26T05:10:49;16.60;;;10.67;;
35225;SDS011;21813;49.686;21.766;2023-06-26T05:13:15;13.80;;;10.77;;
35225;SDS011;21813;49.686;21.766;2023-06-26T05:15:44;17.80;;;11.07;;
35225;SDS011;21813;49.686;21.766;2023-06-26T05:18:11;12.48;;;9.98;;
35225;SDS011;21813;49.686;21.766;2023-06-26T05:20:38;14.40;;;10.05;;
35225;SDS011;21813;49.686;21.766;2023-06-26T05:23:05;21.67;;;10.20;;
35225;SDS011;21813;49.686;21.766;2023-06-26T05:25:33;15.85;;;10.30;;
35225;SDS011;21813;49.686;21.766;2023-06-26T05:27:59;13.07;;;9.10;;
35225;SDS011;21813;49.686;21.766;2023-06-26T05:30:28;13.52;;;10.15;;
35225;SDS011;21813;49.686;21.766;2023-06-26T05:32:56;18.55;;;8.95;;
35225;SDS011;21813;49.686;21.766;2023-06-26T05:35:27;11.63;;;8.85;;
35225;SDS011;21813;49.686;21.766;2023-06-26T05:37:55;15.80;;;8.45;;
35225;SDS011;21813;49.686;21.766;2023-06-26T05:40:23;14.05;;;9.20;;
35225;SDS011;21813;49.686;21.766;2023-06-26T05:42:52;17.17;;;9.50;;
35225;SDS011;21813;49.686;21.766;2023-06-26T05:45:22;13.73;;;9.43;;
35225;SDS011;21813;49.686;21.766;2023-06-26T05:47:51;11.93;;;8.27;;
35225;SDS011;21813;49.686;21.766;2023-06-26T05:50:18;11.82;;;8.75;;
35225;SDS011;21813;49.686;21.766;2023-06-26T05:59:02;11.30;;;8.75;;
35225;SDS011;21813;49.686;21.766;2023-06-26T06:01:33;10.63;;;8.25;;
35225;SDS011;21813;49.686;21.766;2023-06-26T06:04:00;13.20;;;8.57;;
35225;SDS011;21813;49.686;21.766;2023-06-26T06:06:27;13.90;;;8.25;;
35225;SDS011;21813;49.686;21.766;2023-06-26T06:08:55;9.88;;;7.80;;
35225;SDS011;21813;49.686;21.766;2023-06-26T06:13:52;12.85;;;8.35;;
35225;SDS011;21813;49.686;21.766;2023-06-26T06:16:20;11.40;;;8.73;;
35225;SDS011;21813;49.686;21.766;2023-06-26T06:18:46;11.98;;;8.52;;
35225;SDS011;21813;49.686;21.766;2023-06-26T06:21:12;12.73;;;8.18;;
35225;SDS011;21813;49.686;21.766;2023-06-26T06:23:38;12.93;;;8.68;;
35225;SDS011;21813;49.686;21.766;2023-06-26T06:26:04;11.00;;;7.75;;
35225;SDS011;21813;49.686;21.766;2023-06-26T06:28:30;10.95;;;7.43;;
35225;SDS011;21813;49.686;21.766;2023-06-26T06:30:56;12.93;;;7.28;;
35225;SDS011;21813;49.686;21.766;2023-06-26T06:33:22;10.43;;;7.95;;
35225;SDS011;21813;49.686;21.766;2023-06-26T06:35:48;10.85;;;7.53;;
35225;SDS011;21813;49.686;21.766;2023-06-26T06:38:14;11.65;;;7.60;;
35225;SDS011;21813;49.686;21.766;2023-06-26T06:40:40;11.93;;;8.13;;
35225;SDS011;21813;49.686;21.766;2023-06-26T06:43:06;9.60;;;7.00;;
35225;SDS011;21813;49.686;21.766;2023-06-26T06:45:32;13.85;;;8.23;;
35225;SDS011;21813;49.686;21.766;2023-06-26T06:47:57;12.10;;;7.97;;
35225;SDS011;21813;49.686;21.766;2023-06-26T06:50:24;9.63;;;6.45;;
35225;SDS011;21813;49.686;21.766;2023-06-26T06:52:50;12.63;;;7.40;;
35225;SDS011;21813;49.686;21.766;2023-06-26T06:55:16;11.00;;;7.85;;
35225;SDS011;21813;49.686;21.766;2023-06-26T06:57:44;10.43;;;7.72;;
35225;SDS011;21813;49.686;21.766;2023-06-26T07:00:10;13.07;;;7.82;;
35225;SDS011;21813;49.686;21.766;2023-06-26T07:02:40;11.30;;;7.85;;
35225;SDS011;21813;49.686;21.766;2023-06-26T07:05:11;12.15;;;7.20;;
35225;SDS011;21813;49.686;21.766;2023-06-26T07:07:38;9.65;;;7.10;;
35225;SDS011;21813;49.686;21.766;2023-06-26T07:10:05;13.07;;;8.23;;
35225;SDS011;21813;49.686;21.766;2023-06-26T07:12:33;13.38;;;7.55;;
35225;SDS011;21813;49.686;21.766;2023-06-26T07:15:00;13.07;;;7.60;;
35225;SDS011;21813;49.686;21.766;2023-06-26T07:17:26;11.27;;;8.02;;
35225;SDS011;21813;49.686;21.766;2023-06-26T07:19:53;11.77;;;7.28;;
35225;SDS011;21813;49.686;21.766;2023-06-26T07:22:19;9.45;;;6.30;;
35225;SDS011;21813;49.686;21.766;2023-06-26T07:33:57;14.93;;;7.60;;
35225;SDS011;21813;49.686;21.766;2023-06-26T07:36:23;13.90;;;7.75;;
35225;SDS011;21813;49.686;21.766;2023-06-26T07:38:49;13.20;;;7.25;;
35225;SDS011;21813;49.686;21.766;2023-06-26T07:48:14;9.02;;;6.75;;
35225;SDS011;21813;49.686;21.766;2023-06-26T07:50:40;10.02;;;5.97;;
35225;SDS011;21813;49.686;21.766;2023-06-26T07:53:09;10.45;;;6.45;;
35225;SDS011;21813;49.686;21.766;2023-06-26T07:55:34;7.75;;;6.47;;
35225;SDS011;21813;49.686;21.766;2023-06-26T07:58:02;9.10;;;6.30;;
35225;SDS011;21813;49.686;21.766;2023-06-26T08:00:54;9.60;;;6.05;;
35225;SDS011;21813;49.686;21.766;2023-06-26T08:03:38;9.90;;;6.38;;
35225;SDS011;21813;49.686;21.766;2023-06-26T08:06:06;8.73;;;6.30;;
35225;SDS011;21813;49.686;21.766;2023-06-26T08:08:32;13.48;;;6.03;;
35225;SDS011;21813;49.686;21.766;2023-06-26T08:11:22;12.57;;;6.43;;
35225;SDS011;21813;49.686;21.766;2023-06-26T08:13:52;11.82;;;6.40;;
35225;SDS011;21813;49.686;21.766;2023-06-26T08:16:17;8.95;;;5.88;;
35225;SDS011;21813;49.686;21.766;2023-06-26T08:18:44;8.38;;;5.75;;
35225;SDS011;21813;49.686;21.766;2023-06-26T08:21:12;8.93;;;6.00;;
35225;SDS011;21813;49.686;21.766;2023-06-26T08:23:43;12.45;;;6.28;;
35225;SDS011;21813;49.686;21.766;2023-06-26T08:26:18;10.68;;;6.60;;
35225;SDS011;21813;49.686;21.766;2023-06-26T08:28:53;10.85;;;5.47;;
35225;SDS011;21813;49.686;21.766;2023-06-26T08:31:19;9.95;;;6.05;;
35225;SDS011;21813;49.686;21.766;2023-06-26T08:33:47;9.95;;;6.65;;
35225;SDS011;21813;49.686;21.766;2023-06-26T08:36:12;9.25;;;5.95;;
35225;SDS011;21813;49.686;21.766;2023-06-26T08:38:38;8.68;;;5.80;;
35225;SDS011;21813;49.686;21.766;2023-06-26T08:41:07;9.23;;;5.88;;
35225;SDS011;21813;49.686;21.766;2023-06-26T08:43:34;9.10;;;6.03;;
35225;SDS011;21813;49.686;21.766;2023-06-26T08:46:08;8.25;;;5.82;;
35225;SDS011;21813;49.686;21.766;2023-06-26T08:48:35;8.60;;;6.28;;
35225;SDS011;21813;49.686;21.766;2023-06-26T08:51:28;9.80;;;5.60;;
35225;SDS011;21813;49.686;21.766;2023-06-26T08:54:12;7.43;;;5.72;;
35225;SDS011;21813;49.686;21.766;2023-06-26T09:00:05;8.60;;;5.32;;
35225;SDS011;21813;49.686;21.766;2023-06-26T09:02:47;7.33;;;5.83;;
35225;SDS011;21813;49.686;21.766;2023-06-26T09:05:13;9.48;;;5.53;;
35225;SDS011;21813;49.686;21.766;2023-06-26T09:07:44;9.63;;;6.25;;
35225;SDS011;21813;49.686;21.766;2023-06-26T09:10:21;8.05;;;5.10;;
35225;SDS011;21813;49.686;21.766;2023-06-26T09:16:45;5.60;;;4.53;;
35225;SDS011;21813;49.686;21.766;2023-06-26T09:25:59;7.70;;;4.97;;
35225;SDS011;21813;49.686;21.766;2023-06-26T09:35:56;9.68;;;5.43;;
35225;SDS011;21813;49.686;21.766;2023-06-26T09:39:09;8.85;;;5.50;;
35225;SDS011;21813;49.686;21.766;2023-06-26T09:56:51;7.30;;;5.25;;
35225;SDS011;21813;49.686;21.766;2023-06-26T10:12:03;7.32;;;5.22;;
35225;SDS011;21813;49.686;21.766;2023-06-26T10:14:57;9.90;;;5.97;;
35225;SDS011;21813;49.686;21.766;2023-06-26T10:17:55;8.83;;;4.93;;
35225;SDS011;21813;49.686;21.766;2023-06-26T10:20:42;11.35;;;5.32;;
35225;SDS011;21813;49.686;21.766;2023-06-26T10:23:28;8.77;;;5.28;;
35225;SDS011;21813;49.686;21.766;2023-06-26T10:25:58;5.70;;;4.55;;
35225;SDS011;21813;49.686;21.766;2023-06-26T10:28:26;11.23;;;5.55;;
35225;SDS011;21813;49.686;21.766;2023-06-26T10:30:56;6.65;;;4.72;;
35225;SDS011;21813;49.686;21.766;2023-06-26T10:33:24;7.53;;;4.65;;
35225;SDS011;21813;49.686;21.766;2023-06-26T10:35:52;10.93;;;5.30;;
35225;SDS011;21813;49.686;21.766;2023-06-26T10:38:20;8.75;;;5.70;;
35225;SDS011;21813;49.686;21.766;2023-06-26T10:40:48;7.85;;;5.07;;
35225;SDS011;21813;49.686;21.766;2023-06-26T10:43:14;6.35;;;4.60;;
35225;SDS011;21813;49.686;21.766;2023-06-26T10:45:45;6.45;;;5.15;;
35225;SDS011;21813;49.686;21.766;2023-06-26T10:48:14;9.57;;;5.38;;
35225;SDS011;21813;49.686;21.766;2023-06-26T10:50:41;12.00;;;5.78;;
35225;SDS011;21813;49.686;21.766;2023-06-26T10:53:08;8.10;;;5.97;;
35225;SDS011;21813;49.686;21.766;2023-06-26T10:55:37;6.80;;;5.25;;
35225;SDS011;21813;49.686;21.766;2023-06-26T10:58:26;9.25;;;5.13;;
35225;SDS011;21813;49.686;21.766;2023-06-26T11:01:13;7.80;;;5.30;;
35225;SDS011;21813;49.686;21.766;2023-06-26T11:03:46;7.20;;;5.10;;
35225;SDS011;21813;49.686;21.766;2023-06-26T11:16:47;9.10;;;5.93;;
35225;SDS011;21813;49.686;21.766;2023-06-26T11:20:27;8.98;;;5.00;;
35225;SDS011;21813;49.686;21.766;2023-06-26T11:23:33;7.50;;;4.82;;
35225;SDS011;21813;49.686;21.766;2023-06-26T11:32:36;7.60;;;4.47;;
35225;SDS011;21813;49.686;21.766;2023-06-26T11:35:04;5.90;;;4.78;;
35225;SDS011;21813;49.686;21.766;2023-06-26T11:40:59;5.45;;;4.18;;
35225;SDS011;21813;49.686;21.766;2023-06-26T11:57:45;6.28;;;3.85;;
35225;SDS011;21813;49.686;21.766;2023-06-26T12:00:17;7.53;;;4.15;;
35225;SDS011;21813;49.686;21.766;2023-06-26T12:02:45;6.57;;;3.67;;
35225;SDS011;21813;49.686;21.766;2023-06-26T12:05:13;5.60;;;4.25;;
35225;SDS011;21813;49.686;21.766;2023-06-26T12:07:44;7.07;;;3.97;;
35225;SDS011;21813;49.686;21.766;2023-06-26T12:25:08;6.80;;;4.43;;
35225;SDS011;21813;49.686;21.766;2023-06-26T12:27:37;4.90;;;3.80;;
35225;SDS011;21813;49.686;21.766;2023-06-26T12:36:25;8.27;;;4.55;;
35225;SDS011;21813;49.686;21.766;2023-06-26T12:39:00;6.68;;;4.35;;
35225;SDS011;21813;49.686;21.766;2023-06-26T12:42:12;6.25;;;4.13;;
35225;SDS011;21813;49.686;21.766;2023-06-26T12:52:19;5.22;;;4.03;;
35225;SDS011;21813;49.686;21.766;2023-06-26T12:54:54;6.90;;;4.05;;
35225;SDS011;21813;49.686;21.766;2023-06-26T12:57:32;5.30;;;3.45;;
35225;SDS011;21813;49.686;21.766;2023-06-26T13:10:07;5.25;;;3.75;;
35225;SDS011;21813;49.686;21.766;2023-06-26T13:12:48;6.20;;;3.83;;
35225;SDS011;21813;49.686;21.766;2023-06-26T13:15:19;7.60;;;3.65;;
35225;SDS011;21813;49.686;21.766;2023-06-26T13:17:53;4.50;;;3.72;;
35225;SDS011;21813;49.686;21.766;2023-06-26T13:20:26;6.18;;;3.78;;
35225;SDS011;21813;49.686;21.766;2023-06-26T13:22:55;6.82;;;4.25;;
35225;SDS011;21813;49.686;21.766;2023-06-26T13:25:21;5.22;;;3.55;;
35225;SDS011;21813;49.686;21.766;2023-06-26T13:27:48;5.95;;;3.92;;
35225;SDS011;21813;49.686;21.766;2023-06-26T13:30:14;5.70;;;3.72;;
35225;SDS011;21813;49.686;21.766;2023-06-26T13:32:43;4.22;;;3.20;;
35225;SDS011;21813;49.686;21.766;2023-06-26T13:35:16;4.72;;;3.42;;
35225;SDS011;21813;49.686;21.766;2023-06-26T13:37:51;5.47;;;3.88;;
35225;SDS011;21813;49.686;21.766;2023-06-26T15:17:05;5.60;;;3.30;;
35225;SDS011;21813;49.686;21.766;2023-06-26T15:27:41;4.85;;;3.30;;
35225;SDS011;21813;49.686;21.766;2023-06-26T15:34:08;5.03;;;3.75;;
35225;SDS011;21813;49.686;21.766;2023-06-26T15:40:22;6.10;;;3.35;;
35225;SDS011;21813;49.686;21.766;2023-06-26T15:42:56;4.18;;;2.95;;
35225;SDS011;21813;49.686;21.766;2023-06-26T15:45:30;8.13;;;3.85;;
35225;SDS011;21813;49.686;21.766;2023-06-26T15:48:56;4.72;;;3.15;;
35225;SDS011;21813;49.686;21.766;2023-06-26T15:51:24;5.38;;;3.17;;
35225;SDS011;21813;49.686;21.766;2023-06-26T15:54:02;4.15;;;2.90;;
35225;SDS011;21813;49.686;21.766;2023-06-26T15:56:34;4.90;;;3.47;;
35225;SDS011;21813;49.686;21.766;2023-06-26T15:59:01;5.85;;;3.47;;
35225;SDS011;21813;49.686;21.766;2023-06-26T16:01:27;4.68;;;3.13;;
35225;SDS011;21813;49.686;21.766;2023-06-26T16:03:54;4.47;;;3.22;;
35225;SDS011;21813;49.686;21.766;2023-06-26T16:06:20;4.85;;;3.20;;
35225;SDS011;21813;49.686;21.766;2023-06-26T16:08:46;4.88;;;2.45;;
35225;SDS011;21813;49.686;21.766;2023-06-26T16:11:14;5.38;;;3.40;;
35225;SDS011;21813;49.686;21.766;2023-06-26T16:35:50;4.07;;;3.13;;
35225;SDS011;21813;49.686;21.766;2023-06-26T16:42:08;6.47;;;2.72;;
35225;SDS011;21813;49.686;21.766;2023-06-26T16:45:38;4.30;;;3.13;;
35225;SDS011;21813;49.686;21.766;2023-06-26T16:51:33;4.22;;;3.25;;
35225;SDS011;21813;49.686;21.766;2023-06-26T16:54:11;5.50;;;3.15;;
35225;SDS011;21813;49.686;21.766;2023-06-26T16:56:45;4.20;;;3.25;;
35225;SDS011;21813;49.686;21.766;2023-06-26T17:00:31;7.32;;;3.28;;
35225;SDS011;21813;49.686;21.766;2023-06-26T17:03:08;3.92;;;3.00;;
35225;SDS011;21813;49.686;21.766;2023-06-26T17:05:35;5.05;;;3.10;;
35225;SDS011;21813;49.686;21.766;2023-06-26T17:08:05;5.22;;;2.92;;
35225;SDS011;21813;49.686;21.766;2023-06-26T17:10:34;4.82;;;3.05;;
35225;SDS011;21813;49.686;21.766;2023-06-26T17:13:03;5.20;;;3.33;;
35225;SDS011;21813;49.686;21.766;2023-06-26T17:19:17;4.47;;;3.13;;
35225;SDS011;21813;49.686;21.766;2023-06-26T17:21:47;4.55;;;3.40;;
35225;SDS011;21813;49.686;21.766;2023-06-26T17:24:13;4.70;;;2.92;;
35225;SDS011;21813;49.686;21.766;2023-06-26T17:26:42;6.47;;;3.28;;
35225;SDS011;21813;49.686;21.766;2023-06-26T17:29:10;6.20;;;3.65;;
35225;SDS011;21813;49.686;21.766;2023-06-26T17:31:36;6.55;;;4.20;;
35225;SDS011;21813;49.686;21.766;2023-06-26T17:37:46;8.45;;;4.00;;
35225;SDS011;21813;49.686;21.766;2023-06-26T17:40:15;10.13;;;4.10;;
35225;SDS011;21813;49.686;21.766;2023-06-26T17:42:41;8.30;;;4.05;;
35225;SDS011;21813;49.686;21.766;2023-06-26T17:45:14;5.93;;;3.50;;
35225;SDS011;21813;49.686;21.766;2023-06-26T17:47:43;8.95;;;3.50;;
35225;SDS011;21813;49.686;21.766;2023-06-26T17:50:10;8.75;;;4.32;;
35225;SDS011;21813;49.686;21.766;2023-06-26T17:52:40;6.50;;;3.50;;
35225;SDS011;21813;49.686;21.766;2023-06-26T17:55:14;7.40;;;4.25;;
35225;SDS011;21813;49.686;21.766;2023-06-26T17:57:46;8.98;;;4.05;;
35225;SDS011;21813;49.686;21.766;2023-06-26T18:00:19;8.00;;;3.80;;
35225;SDS011;21813;49.686;21.766;2023-06-26T18:02:44;8.07;;;4.35;;
35225;SDS011;21813;49.686;21.766;2023-06-26T18:05:15;4.75;;;4.05;;
35225;SDS011;21813;49.686;21.766;2023-06-26T18:14:58;6.10;;;4.10;;
35225;SDS011;21813;49.686;21.766;2023-06-26T18:20:40;7.32;;;4.63;;
35225;SDS011;21813;49.686;21.766;2023-06-26T18:26:38;6.63;;;3.90;;
35225;SDS011;21813;49.686;21.766;2023-06-26T18:29:46;7.43;;;5.00;;
35225;SDS011;21813;49.686;21.766;2023-06-26T18:46:17;10.93;;;6.28;;
35225;SDS011;21813;49.686;21.766;2023-06-26T18:48:59;14.75;;;5.97;;
35225;SDS011;21813;49.686;21.766;2023-06-26T18:51:30;11.63;;;6.68;;
35225;SDS011;21813;49.686;21.766;2023-06-26T18:56:40;13.07;;;6.30;;
35225;SDS011;21813;49.686;21.766;2023-06-26T19:02:23;12.27;;;6.32;;
35225;SDS011;21813;49.686;21.766;2023-06-26T19:04:50;14.05;;;7.20;;
35225;SDS011;21813;49.686;21.766;2023-06-26T19:07:16;18.98;;;6.65;;
35225;SDS011;21813;49.686;21.766;2023-06-26T19:09:43;11.77;;;7.00;;
35225;SDS011;21813;49.686;21.766;2023-06-26T19:12:09;13.35;;;6.70;;
35225;SDS011;21813;49.686;21.766;2023-06-26T19:14:41;13.73;;;6.80;;
35225;SDS011;21813;49.686;21.766;2023-06-26T19:17:10;13.55;;;6.65;;
35225;SDS011;21813;49.686;21.766;2023-06-26T19:19:46;11.75;;;7.10;;
35225;SDS011;21813;49.686;21.766;2023-06-26T19:22:12;17.17;;;8.30;;
35225;SDS011;21813;49.686;21.766;2023-06-26T19:24:39;12.43;;;7.95;;
35225;SDS011;21813;49.686;21.766;2023-06-26T19:27:05;14.82;;;8.50;;
35225;SDS011;21813;49.686;21.766;2023-06-26T19:29:32;14.98;;;8.82;;
35225;SDS011;21813;49.686;21.766;2023-06-26T19:31:58;17.23;;;9.30;;
35225;SDS011;21813;49.686;21.766;2023-06-26T19:34:26;17.58;;;9.65;;
35225;SDS011;21813;49.686;21.766;2023-06-26T19:36:52;18.33;;;8.80;;
35225;SDS011;21813;49.686;21.766;2023-06-26T19:39:19;16.38;;;9.32;;
35225;SDS011;21813;49.686;21.766;2023-06-26T19:42:03;20.92;;;9.25;;
35225;SDS011;21813;49.686;21.766;2023-06-26T19:44:31;18.88;;;9.32;;
35225;SDS011;21813;49.686;21.766;2023-06-26T19:46:58;20.77;;;10.32;;
35225;SDS011;21813;49.686;21.766;2023-06-26T19:49:24;16.42;;;9.80;;
35225;SDS011;21813;49.686;21.766;2023-06-26T19:51:53;21.05;;;10.18;;
35225;SDS011;21813;49.686;21.766;2023-06-26T19:54:22;22.90;;;9.35;;
35225;SDS011;21813;49.686;21.766;2023-06-26T19:56:47;18.17;;;9.95;;
35225;SDS011;21813;49.686;21.766;2023-06-26T19:59:14;18.58;;;10.40;;
35225;SDS011;21813;49.686;21.766;2023-06-26T20:01:41;19.75;;;10.27;;
35225;SDS011;21813;49.686;21.766;2023-06-26T20:04:10;16.50;;;9.68;;
35225;SDS011;21813;49.686;21.766;2023-06-26T20:06:36;20.10;;;9.68;;
35225;SDS011;21813;49.686;21.766;2023-06-26T20:09:06;18.05;;;10.30;;
35225;SDS011;21813;49.686;21.766;2023-06-26T20:11:34;17.73;;;9.73;;
35225;SDS011;21813;49.686;21.766;2023-06-26T20:14:01;15.88;;;9.48;;
35225;SDS011;21813;49.686;21.766;2023-06-26T20:16:27;17.38;;;9.57;;
35225;SDS011;21813;49.686;21.766;2023-06-26T20:18:54;15.57;;;9.77;;
35225;SDS011;21813;49.686;21.766;2023-06-26T20:21:20;17.92;;;9.77;;
35225;SDS011;21813;49.686;21.766;2023-06-26T20:23:47;16.35;;;9.15;;
35225;SDS011;21813;49.686;21.766;2023-06-26T20:26:13;22.77;;;10.65;;
35225;SDS011;21813;49.686;21.766;2023-06-26T20:28:42;20.27;;;10.45;;
35225;SDS011;21813;49.686;21.766;2023-06-26T20:31:07;18.92;;;10.57;;
35225;SDS011;21813;49.686;21.766;2023-06-26T20:33:35;19.92;;;10.63;;
35225;SDS011;21813;49.686;21.766;2023-06-26T20:36:00;16.45;;;10.15;;
35225;SDS011;21813;49.686;21.766;2023-06-26T20:38:29;21.23;;;11.10;;
35225;SDS011;21813;49.686;21.766;2023-06-26T20:40:55;19.23;;;12.25;;
35225;SDS011;21813;49.686;21.766;2023-06-26T20:43:22;22.95;;;12.45;;
35225;SDS011;21813;49.686;21.766;2023-06-26T20:45:48;23.38;;;11.88;;
35225;SDS011;21813;49.686;21.766;2023-06-26T20:48:17;19.60;;;11.38;;
35225;SDS011;21813;49.686;21.766;2023-06-26T20:50:44;18.92;;;11.43;;
35225;SDS011;21813;49.686;21.766;2023-06-26T20:53:11;26.27;;;11.13;;
35225;SDS011;21813;49.686;21.766;2023-06-26T20:55:37;23.98;;;12.88;;
35225;SDS011;21813;49.686;21.766;2023-06-26T20:58:05;23.05;;;13.02;;
35225;SDS011;21813;49.686;21.766;2023-06-26T21:00:30;22.27;;;12.50;;
35225;SDS011;21813;49.686;21.766;2023-06-26T21:02:57;21.40;;;11.68;;
35225;SDS011;21813;49.686;21.766;2023-06-26T21:05:23;23.70;;;12.25;;
35225;SDS011;21813;49.686;21.766;2023-06-26T21:07:50;29.13;;;12.82;;
35225;SDS011;21813;49.686;21.766;2023-06-26T21:10:16;20.98;;;12.10;;
35225;SDS011;21813;49.686;21.766;2023-06-26T21:12:45;22.20;;;12.73;;
35225;SDS011;21813;49.686;21.766;2023-06-26T21:15:11;28.80;;;12.35;;
35225;SDS011;21813;49.686;21.766;2023-06-26T21:17:37;25.02;;;11.50;;
35225;SDS011;21813;49.686;21.766;2023-06-26T21:20:03;20.33;;;12.30;;